Aberdeen, South Dakota
Current Conditions -  °F | °C
As of 12:53 PM on Friday 21 Nov 2014 (Local Time) from KABR Reporting Station
Clear Clear  
Wind Chill: 19°   Ceiling: Unl
Heat Index: 30°   Visibility: 10mi
Dew Point: 23°   Wind: 15mph
Humidity: 75%   Direction: 190°S
Pressure: 29.83"   Gusts: NA
Location:  45.46°N, 98.49°W
Report Text: KABR 211853Z AUTO 19013KT 10SM CLR M01/M05 A2983 RMK AO2 SLP123 T10111050
Loading
Personal Weather Stations






























Interactive Weather Map New forecast layout! Learn more

10-Day Weather Forecast

Advertisements
Track Severe Weather on mobile